sensor_id;sensor_type;location;lat;lon;timestamp;pressure;altitude;pressure_sealevel;temperature;humidity
6198;BME280;3132;42.622;23.328;2023-05-14T00:00:11;93238.78;;;13.61;66.43
6198;BME280;3132;42.622;23.328;2023-05-14T00:02:36;93196.19;;;13.27;66.50
6198;BME280;3132;42.622;23.328;2023-05-14T00:05:02;93251.16;;;13.56;66.97
6198;BME280;3132;42.622;23.328;2023-05-14T00:07:27;93245.53;;;13.67;66.84
6198;BME280;3132;42.622;23.328;2023-05-14T00:09:55;93244.03;;;13.61;66.70
6198;BME280;3132;42.622;23.328;2023-05-14T00:12:21;93245.34;;;13.59;67.67
6198;BME280;3132;42.622;23.328;2023-05-14T00:14:46;93243.38;;;13.51;66.69
6198;BME280;3132;42.622;23.328;2023-05-14T00:17:12;93235.22;;;13.52;67.05
6198;BME280;3132;42.622;23.328;2023-05-14T00:19:37;93239.28;;;13.63;65.99
6198;BME280;3132;42.622;23.328;2023-05-14T00:22:09;93224.59;;;13.39;66.63
6198;BME280;3132;42.622;23.328;2023-05-14T00:24:35;93228.25;;;13.43;66.16
6198;BME280;3132;42.622;23.328;2023-05-14T00:27:01;93225.03;;;13.27;66.30
6198;BME280;3132;42.622;23.328;2023-05-14T00:29:26;93217.72;;;13.48;66.12
6198;BME280;3132;42.622;23.328;2023-05-14T00:31:52;93210.13;;;13.46;67.41
6198;BME280;3132;42.622;23.328;2023-05-14T00:34:17;93217.72;;;13.48;65.97
6198;BME280;3132;42.622;23.328;2023-05-14T00:36:42;93209.22;;;13.32;66.91
6198;BME280;3132;42.622;23.328;2023-05-14T00:39:08;93214.63;;;13.41;66.88
6198;BME280;3132;42.622;23.328;2023-05-14T00:41:33;93215.69;;;13.40;67.47
6198;BME280;3132;42.622;23.328;2023-05-14T00:43:59;93207.56;;;13.41;67.04
6198;BME280;3132;42.622;23.328;2023-05-14T00:46:24;93222.66;;;13.49;67.49
6198;BME280;3132;42.622;23.328;2023-05-14T00:48:50;93169.94;;;13.27;66.69
6198;BME280;3132;42.622;23.328;2023-05-14T00:51:17;93198.84;;;13.46;66.58
6198;BME280;3132;42.622;23.328;2023-05-14T00:53:43;93201.19;;;13.47;66.67
6198;BME280;3132;42.622;23.328;2023-05-14T00:56:09;93209.88;;;13.43;66.82
6198;BME280;3132;42.622;23.328;2023-05-14T00:58:35;93207.97;;;13.48;66.66
6198;BME280;3132;42.622;23.328;2023-05-14T01:01:00;93195.94;;;13.47;66.49
6198;BME280;3132;42.622;23.328;2023-05-14T01:03:26;93205.28;;;13.53;66.42
6198;BME280;3132;42.622;23.328;2023-05-14T01:11:51;93194.16;;;13.43;66.33
6198;BME280;3132;42.622;23.328;2023-05-14T01:17:04;93187.47;;;13.32;66.52
6198;BME280;3132;42.622;23.328;2023-05-14T01:19:42;93206.25;;;13.39;66.82
6198;BME280;3132;42.622;23.328;2023-05-14T01:22:08;93194.53;;;13.31;67.27
6198;BME280;3132;42.622;23.328;2023-05-14T01:24:34;93205.78;;;13.37;66.83
6198;BME280;3132;42.622;23.328;2023-05-14T01:27:32;93210.59;;;13.48;66.53
6198;BME280;3132;42.622;23.328;2023-05-14T01:30:22;93208.16;;;13.33;66.74
6198;BME280;3132;42.622;23.328;2023-05-14T01:32:53;93203.25;;;13.27;67.11
6198;BME280;3132;42.622;23.328;2023-05-14T01:35:26;93215.53;;;13.31;66.86
6198;BME280;3132;42.622;23.328;2023-05-14T01:37:57;93224.06;;;13.18;66.76
6198;BME280;3132;42.622;23.328;2023-05-14T01:40:24;93222.63;;;13.07;67.54
6198;BME280;3132;42.622;23.328;2023-05-14T01:42:50;93213.22;;;13.25;66.64
6198;BME280;3132;42.622;23.328;2023-05-14T01:45:18;93221.59;;;13.27;66.68
6198;BME280;3132;42.622;23.328;2023-05-14T01:47:44;93223.78;;;13.20;66.97
6198;BME280;3132;42.622;23.328;2023-05-14T01:50:09;93220.38;;;13.19;67.08
6198;BME280;3132;42.622;23.328;2023-05-14T01:52:35;93214.31;;;12.95;67.02
6198;BME280;3132;42.622;23.328;2023-05-14T01:55:00;93207.22;;;13.01;67.19
6198;BME280;3132;42.622;23.328;2023-05-14T01:57:26;93223.91;;;13.10;68.11
6198;BME280;3132;42.622;23.328;2023-05-14T01:59:51;93226.50;;;13.10;68.85
6198;BME280;3132;42.622;23.328;2023-05-14T02:02:16;93227.91;;;12.97;70.14
6198;BME280;3132;42.622;23.328;2023-05-14T02:04:42;93225.34;;;12.92;71.83
6198;BME280;3132;42.622;23.328;2023-05-14T02:07:07;93214.94;;;12.87;73.72
6198;BME280;3132;42.622;23.328;2023-05-14T02:09:33;93220.81;;;12.74;76.34
6198;BME280;3132;42.622;23.328;2023-05-14T02:11:58;93222.47;;;12.65;76.65
6198;BME280;3132;42.622;23.328;2023-05-14T02:14:24;93221.97;;;12.63;77.72
6198;BME280;3132;42.622;23.328;2023-05-14T02:16:49;93216.97;;;12.66;77.86
6198;BME280;3132;42.622;23.328;2023-05-14T02:19:15;93211.31;;;12.54;77.79
6198;BME280;3132;42.622;23.328;2023-05-14T02:21:40;93191.81;;;12.37;77.53
6198;BME280;3132;42.622;23.328;2023-05-14T02:24:06;93149.16;;;12.03;76.48
6198;BME280;3132;42.622;23.328;2023-05-14T02:26:31;93217.22;;;12.31;76.24
6198;BME280;3132;42.622;23.328;2023-05-14T02:28:57;93216.91;;;12.43;76.06
6198;BME280;3132;42.622;23.328;2023-05-14T02:31:22;93226.88;;;12.36;76.45
6198;BME280;3132;42.622;23.328;2023-05-14T02:33:47;93220.13;;;12.30;75.78
6198;BME280;3132;42.622;23.328;2023-05-14T02:36:13;93212.81;;;12.27;75.62
6198;BME280;3132;42.622;23.328;2023-05-14T02:38:38;93229.56;;;12.31;76.13
6198;BME280;3132;42.622;23.328;2023-05-14T02:41:04;93228.47;;;12.37;75.67
6198;BME280;3132;42.622;23.328;2023-05-14T02:43:29;93243.13;;;12.38;75.61
6198;BME280;3132;42.622;23.328;2023-05-14T02:45:54;93240.09;;;12.21;75.81
6198;BME280;3132;42.622;23.328;2023-05-14T02:48:20;93249.56;;;12.17;77.83
6198;BME280;3132;42.622;23.328;2023-05-14T02:50:45;93256.34;;;12.18;78.16
6198;BME280;3132;42.622;23.328;2023-05-14T02:53:11;93242.56;;;12.02;78.17
6198;BME280;3132;42.622;23.328;2023-05-14T02:55:36;93261.13;;;12.11;78.20
6198;BME280;3132;42.622;23.328;2023-05-14T02:58:01;93263.75;;;12.06;77.14
6198;BME280;3132;42.622;23.328;2023-05-14T03:00:27;93256.47;;;11.98;77.80
6198;BME280;3132;42.622;23.328;2023-05-14T03:02:52;93256.47;;;11.98;78.29
6198;BME280;3132;42.622;23.328;2023-05-14T03:05:18;93253.28;;;12.06;78.44
6198;BME280;3132;42.622;23.328;2023-05-14T03:07:44;93239.50;;;11.95;78.22
6198;BME280;3132;42.622;23.328;2023-05-14T03:10:09;93248.63;;;11.98;78.32
6198;BME280;3132;42.622;23.328;2023-05-14T03:12:35;93233.72;;;11.98;78.90
6198;BME280;3132;42.622;23.328;2023-05-14T03:15:00;93237.03;;;12.09;78.88
6198;BME280;3132;42.622;23.328;2023-05-14T03:17:26;93231.28;;;12.07;78.90
6198;BME280;3132;42.622;23.328;2023-05-14T03:19:51;93237.31;;;12.07;79.64
6198;BME280;3132;42.622;23.328;2023-05-14T03:22:17;93235.72;;;12.06;82.38
6198;BME280;3132;42.622;23.328;2023-05-14T03:24:42;93232.94;;;11.98;83.55
6198;BME280;3132;42.622;23.328;2023-05-14T03:27:07;93231.97;;;11.79;85.82
6198;BME280;3132;42.622;23.328;2023-05-14T03:29:33;93224.94;;;11.74;87.22
6198;BME280;3132;42.622;23.328;2023-05-14T03:31:58;93223.41;;;11.73;88.29
6198;BME280;3132;42.622;23.328;2023-05-14T03:34:24;93225.25;;;11.68;89.30
6198;BME280;3132;42.622;23.328;2023-05-14T03:36:49;93233.09;;;11.63;89.15
6198;BME280;3132;42.622;23.328;2023-05-14T03:39:15;93240.94;;;11.63;88.52
6198;BME280;3132;42.622;23.328;2023-05-14T03:41:44;93231.50;;;11.72;87.82
6198;BME280;3132;42.622;23.328;2023-05-14T03:44:10;93234.56;;;11.84;86.76
6198;BME280;3132;42.622;23.328;2023-05-14T03:46:36;93230.41;;;11.83;87.32
6198;BME280;3132;42.622;23.328;2023-05-14T03:49:01;93227.00;;;11.82;87.60
6198;BME280;3132;42.622;23.328;2023-05-14T03:51:26;93240.25;;;11.96;85.59
6198;BME280;3132;42.622;23.328;2023-05-14T03:53:52;93245.22;;;11.97;85.27
6198;BME280;3132;42.622;23.328;2023-05-14T03:56:17;93240.50;;;11.99;85.42
6198;BME280;3132;42.622;23.328;2023-05-14T03:58:43;93242.28;;;12.09;84.48
6198;BME280;3132;42.622;23.328;2023-05-14T04:01:08;93242.03;;;12.05;83.82
6198;BME280;3132;42.622;23.328;2023-05-14T04:03:33;93251.91;;;12.18;82.47
6198;BME280;3132;42.622;23.328;2023-05-14T04:05:59;93247.38;;;12.29;83.13
6198;BME280;3132;42.622;23.328;2023-05-14T04:08:24;93252.63;;;12.29;81.47
6198;BME280;3132;42.622;23.328;2023-05-14T04:10:50;93238.47;;;12.30;81.11
6198;BME280;3132;42.622;23.328;2023-05-14T04:13:15;93230.13;;;12.28;81.31
6198;BME280;3132;42.622;23.328;2023-05-14T04:15:41;93246.97;;;12.45;82.21
6198;BME280;3132;42.622;23.328;2023-05-14T04:18:06;93248.44;;;12.28;84.90
6198;BME280;3132;42.622;23.328;2023-05-14T04:20:32;93255.88;;;12.11;86.11
6198;BME280;3132;42.622;23.328;2023-05-14T04:22:57;93254.91;;;11.97;86.14
6198;BME280;3132;42.622;23.328;2023-05-14T04:25:23;93262.16;;;12.10;86.52
6198;BME280;3132;42.622;23.328;2023-05-14T04:27:48;93240.34;;;11.81;87.01
6198;BME280;3132;42.622;23.328;2023-05-14T04:30:14;93264.84;;;12.00;87.15
6198;BME280;3132;42.622;23.328;2023-05-14T04:32:39;93214.78;;;11.63;87.50
6198;BME280;3132;42.622;23.328;2023-05-14T04:35:05;93244.53;;;11.82;87.70
6198;BME280;3132;42.622;23.328;2023-05-14T04:37:31;93252.31;;;11.92;85.72
6198;BME280;3132;42.622;23.328;2023-05-14T04:39:57;93271.09;;;12.04;87.07
6198;BME280;3132;42.622;23.328;2023-05-14T04:42:22;93261.00;;;11.82;87.64
6198;BME280;3132;42.622;23.328;2023-05-14T04:44:48;93271.16;;;11.94;87.29
6198;BME280;3132;42.622;23.328;2023-05-14T04:47:13;93249.81;;;11.72;88.25
6198;BME280;3132;42.622;23.328;2023-05-14T04:49:39;93267.50;;;11.90;88.61
6198;BME280;3132;42.622;23.328;2023-05-14T04:52:05;93262.53;;;11.88;89.31
6198;BME280;3132;42.622;23.328;2023-05-14T04:54:30;93280.41;;;11.76;91.78
6198;BME280;3132;42.622;23.328;2023-05-14T04:56:56;93283.88;;;11.52;95.88
6198;BME280;3132;42.622;23.328;2023-05-14T04:59:21;93279.66;;;11.56;98.17
6198;BME280;3132;42.622;23.328;2023-05-14T05:01:47;93279.66;;;11.66;97.84
6198;BME280;3132;42.622;23.328;2023-05-14T05:04:12;93298.72;;;11.61;100.00
6198;BME280;3132;42.622;23.328;2023-05-14T05:06:38;93301.72;;;11.19;100.00
6198;BME280;3132;42.622;23.328;2023-05-14T05:09:03;93302.75;;;11.33;100.00
6198;BME280;3132;42.622;23.328;2023-05-14T05:11:29;93303.75;;;11.48;100.00
6198;BME280;3132;42.622;23.328;2023-05-14T05:13:54;93310.53;;;11.54;100.00
6198;BME280;3132;42.622;23.328;2023-05-14T05:16:19;93321.03;;;11.49;100.00
6198;BME280;3132;42.622;23.328;2023-05-14T05:18:45;93319.41;;;11.58;100.00
6198;BME280;3132;42.622;23.328;2023-05-14T05:21:10;93320.25;;;11.43;100.00
6198;BME280;3132;42.622;23.328;2023-05-14T05:23:36;93323.66;;;11.44;100.00
6198;BME280;3132;42.622;23.328;2023-05-14T05:26:01;93332.50;;;11.58;100.00
6198;BME280;3132;42.622;23.328;2023-05-14T05:28:27;93328.09;;;11.38;100.00
6198;BME280;3132;42.622;23.328;2023-05-14T05:30:52;93336.47;;;11.35;100.00
6198;BME280;3132;42.622;23.328;2023-05-14T05:33:18;93328.34;;;11.47;100.00
6198;BME280;3132;42.622;23.328;2023-05-14T05:35:43;93342.69;;;11.49;100.00
6198;BME280;3132;42.622;23.328;2023-05-14T05:38:09;93331.19;;;11.55;100.00
6198;BME280;3132;42.622;23.328;2023-05-14T05:40:34;93346.09;;;11.55;100.00
6198;BME280;3132;42.622;23.328;2023-05-14T05:43:00;93329.63;;;11.44;100.00
6198;BME280;3132;42.622;23.328;2023-05-14T05:45:25;93331.47;;;11.49;100.00
6198;BME280;3132;42.622;23.328;2023-05-14T05:47:51;93341.41;;;11.47;100.00
6198;BME280;3132;42.622;23.328;2023-05-14T05:50:16;93351.84;;;11.57;100.00
6198;BME280;3132;42.622;23.328;2023-05-14T05:52:42;93349.50;;;11.70;100.00
6198;BME280;3132;42.622;23.328;2023-05-14T05:55:07;93353.88;;;11.85;100.00
6198;BME280;3132;42.622;23.328;2023-05-14T05:57:33;93334.84;;;11.59;100.00
6198;BME280;3132;42.622;23.328;2023-05-14T05:59:58;93344.53;;;11.64;100.00
6198;BME280;3132;42.622;23.328;2023-05-14T06:02:24;93332.50;;;11.43;100.00
6198;BME280;3132;42.622;23.328;2023-05-14T06:04:50;93328.13;;;11.23;100.00
6198;BME280;3132;42.622;23.328;2023-05-14T06:07:15;93330.97;;;11.47;100.00
6198;BME280;3132;42.622;23.328;2023-05-14T06:09:40;93331.97;;;11.56;100.00
6198;BME280;3132;42.622;23.328;2023-05-14T06:12:06;93319.19;;;11.44;100.00
6198;BME280;3132;42.622;23.328;2023-05-14T06:14:32;93346.13;;;11.45;100.00
6198;BME280;3132;42.622;23.328;2023-05-14T06:16:57;93338.81;;;11.42;100.00
6198;BME280;3132;42.622;23.328;2023-05-14T06:19:23;93333.09;;;11.29;100.00
6198;BME280;3132;42.622;23.328;2023-05-14T06:21:48;93334.84;;;11.49;100.00
6198;BME280;3132;42.622;23.328;2023-05-14T06:24:13;93310.31;;;11.35;100.00
6198;BME280;3132;42.622;23.328;2023-05-14T06:26:40;93316.63;;;11.24;100.00
6198;BME280;3132;42.622;23.328;2023-05-14T06:29:06;93326.56;;;11.02;100.00
6198;BME280;3132;42.622;23.328;2023-05-14T06:31:31;93323.72;;;10.93;100.00
6198;BME280;3132;42.622;23.328;2023-05-14T06:33:57;93330.53;;;10.84;100.00
6198;BME280;3132;42.622;23.328;2023-05-14T06:36:22;93328.94;;;10.93;100.00
6198;BME280;3132;42.622;23.328;2023-05-14T06:38:47;93344.06;;;11.16;100.00
6198;BME280;3132;42.622;23.328;2023-05-14T06:41:13;93344.88;;;11.17;100.00
6198;BME280;3132;42.622;23.328;2023-05-14T06:43:38;93338.84;;;11.21;100.00
6198;BME280;3132;42.622;23.328;2023-05-14T06:46:03;93345.69;;;10.87;100.00
6198;BME280;3132;42.622;23.328;2023-05-14T06:48:29;93334.69;;;11.05;100.00
6198;BME280;3132;42.622;23.328;2023-05-14T06:50:55;93317.22;;;10.91;100.00
6198;BME280;3132;42.622;23.328;2023-05-14T06:53:20;93311.69;;;10.97;100.00
6198;BME280;3132;42.622;23.328;2023-05-14T06:55:47;93319.75;;;11.21;100.00
6198;BME280;3132;42.622;23.328;2023-05-14T06:58:12;93321.34;;;11.17;100.00
6198;BME280;3132;42.622;23.328;2023-05-14T07:00:38;93297.56;;;11.13;100.00
6198;BME280;3132;42.622;23.328;2023-05-14T07:03:04;93301.25;;;10.97;100.00
6198;BME280;3132;42.622;23.328;2023-05-14T07:05:29;93313.78;;;10.80;100.00
6198;BME280;3132;42.622;23.328;2023-05-14T07:07:55;93307.03;;;10.84;100.00
6198;BME280;3132;42.622;23.328;2023-05-14T07:10:20;93302.81;;;10.88;100.00
6198;BME280;3132;42.622;23.328;2023-05-14T07:12:46;93308.56;;;10.55;100.00
6198;BME280;3132;42.622;23.328;2023-05-14T07:15:11;93293.19;;;10.74;100.00
6198;BME280;3132;42.622;23.328;2023-05-14T07:17:37;93323.72;;;10.93;100.00
6198;BME280;3132;42.622;23.328;2023-05-14T07:20:03;93321.38;;;10.82;100.00
6198;BME280;3132;42.622;23.328;2023-05-14T07:22:28;93344.59;;;10.33;100.00
6198;BME280;3132;42.622;23.328;2023-05-14T07:24:53;93352.19;;;10.70;100.00
6198;BME280;3132;42.622;23.328;2023-05-14T07:27:19;93355.31;;;10.62;100.00
6198;BME280;3132;42.622;23.328;2023-05-14T07:29:44;93360.53;;;10.57;100.00
6198;BME280;3132;42.622;23.328;2023-05-14T07:32:10;93358.19;;;10.50;100.00
6198;BME280;3132;42.622;23.328;2023-05-14T07:34:35;93337.28;;;10.45;100.00
6198;BME280;3132;42.622;23.328;2023-05-14T07:37:01;93348.28;;;10.67;100.00
6198;BME280;3132;42.622;23.328;2023-05-14T07:39:26;93330.25;;;10.61;100.00
6198;BME280;3132;42.622;23.328;2023-05-14T07:41:52;93343.06;;;10.92;100.00
6198;BME280;3132;42.622;23.328;2023-05-14T07:44:19;93342.00;;;10.93;100.00
6198;BME280;3132;42.622;23.328;2023-05-14T07:46:45;93341.75;;;10.85;100.00
6198;BME280;3132;42.622;23.328;2023-05-14T07:49:10;93343.03;;;10.97;100.00
6198;BME280;3132;42.622;23.328;2023-05-14T07:51:35;93320.59;;;10.86;100.00
6198;BME280;3132;42.622;23.328;2023-05-14T07:54:01;93363.69;;;11.19;100.00
6198;BME280;3132;42.622;23.328;2023-05-14T07:56:26;93369.69;;;11.19;100.00
6198;BME280;3132;42.622;23.328;2023-05-14T07:58:52;93374.91;;;11.24;100.00
6198;BME280;3132;42.622;23.328;2023-05-14T08:01:17;93364.75;;;11.03;100.00
6198;BME280;3132;42.622;23.328;2023-05-14T08:03:42;93359.25;;;10.64;100.00
6198;BME280;3132;42.622;23.328;2023-05-14T08:06:08;93347.50;;;10.77;100.00
6198;BME280;3132;42.622;23.328;2023-05-14T08:08:33;93352.72;;;11.17;100.00
6198;BME280;3132;42.622;23.328;2023-05-14T08:10:59;93349.59;;;11.00;100.00
6198;BME280;3132;42.622;23.328;2023-05-14T08:13:24;93344.09;;;10.51;100.00
6198;BME280;3132;42.622;23.328;2023-05-14T08:15:50;93351.38;;;11.14;100.00
6198;BME280;3132;42.622;23.328;2023-05-14T08:18:15;93343.84;;;10.88;100.00
6198;BME280;3132;42.622;23.328;2023-05-14T08:20:41;93343.56;;;11.04;100.00
6198;BME280;3132;42.622;23.328;2023-05-14T08:23:06;93336.19;;;11.42;100.00
6198;BME280;3132;42.622;23.328;2023-05-14T08:25:33;93334.13;;;11.28;100.00
6198;BME280;3132;42.622;23.328;2023-05-14T08:27:58;93332.03;;;11.35;100.00
6198;BME280;3132;42.622;23.328;2023-05-14T08:30:24;93321.25;;;11.67;100.00
6198;BME280;3132;42.622;23.328;2023-05-14T08:32:50;93328.97;;;11.97;100.00
6198;BME280;3132;42.622;23.328;2023-05-14T08:35:17;93325.06;;;12.43;100.00
6198;BME280;3132;42.622;23.328;2023-05-14T08:37:43;93325.78;;;12.49;100.00
6198;BME280;3132;42.622;23.328;2023-05-14T08:40:09;93324.91;;;12.63;100.00
6198;BME280;3132;42.622;23.328;2023-05-14T08:42:38;93322.66;;;12.47;100.00
6198;BME280;3132;42.622;23.328;2023-05-14T08:45:15;93323.16;;;12.49;100.00
6198;BME280;3132;42.622;23.328;2023-05-14T08:47:46;93319.16;;;12.95;100.00
6198;BME280;3132;42.622;23.328;2023-05-14T08:50:12;93305.31;;;12.56;100.00
6198;BME280;3132;42.622;23.328;2023-05-14T08:52:38;93320.13;;;12.37;100.00
6198;BME280;3132;42.622;23.328;2023-05-14T08:55:04;93313.34;;;12.31;100.00
6198;BME280;3132;42.622;23.328;2023-05-14T08:57:33;93313.38;;;12.26;100.00
6198;BME280;3132;42.622;23.328;2023-05-14T08:59:59;93322.69;;;11.98;100.00
6198;BME280;3132;42.622;23.328;2023-05-14T09:02:29;93315.72;;;11.74;100.00
6198;BME280;3132;42.622;23.328;2023-05-14T09:04:57;93315.22;;;11.72;100.00
6198;BME280;3132;42.622;23.328;2023-05-14T09:07:23;93309.50;;;11.55;100.00
6198;BME280;3132;42.622;23.328;2023-05-14T09:09:48;93302.69;;;11.64;100.00
6198;BME280;3132;42.622;23.328;2023-05-14T09:12:15;93305.03;;;11.65;100.00
6198;BME280;3132;42.622;23.328;2023-05-14T09:14:40;93294.28;;;11.72;100.00
6198;BME280;3132;42.622;23.328;2023-05-14T09:17:07;93306.50;;;11.86;100.00
6198;BME280;3132;42.622;23.328;2023-05-14T09:19:32;93293.41;;;11.86;100.00
6198;BME280;3132;42.622;23.328;2023-05-14T09:21:58;93313.53;;;11.96;100.00
6198;BME280;3132;42.622;23.328;2023-05-14T09:24:25;93321.34;;;12.01;100.00
6198;BME280;3132;42.622;23.328;2023-05-14T09:26:57;93307.84;;;11.79;100.00
6198;BME280;3132;42.622;23.328;2023-05-14T09:29:27;93311.78;;;11.81;100.00
6198;BME280;3132;42.622;23.328;2023-05-14T09:31:54;93295.28;;;11.86;100.00
6198;BME280;3132;42.622;23.328;2023-05-14T09:36:48;93308.16;;;11.67;100.00
6198;BME280;3132;42.622;23.328;2023-05-14T09:39:14;93308.97;;;11.58;100.00
6198;BME280;3132;42.622;23.328;2023-05-14T09:41:40;93303.72;;;11.58;100.00
6198;BME280;3132;42.622;23.328;2023-05-14T09:44:05;93284.09;;;11.55;100.00
6198;BME280;3132;42.622;23.328;2023-05-14T09:46:31;93280.75;;;11.50;100.00
6198;BME280;3132;42.622;23.328;2023-05-14T09:48:56;93270.75;;;11.57;100.00
6198;BME280;3132;42.622;23.328;2023-05-14T09:51:22;93256.41;;;11.49;100.00
6198;BME280;3132;42.622;23.328;2023-05-14T09:53:50;93273.84;;;11.79;100.00
6198;BME280;3132;42.622;23.328;2023-05-14T09:56:16;93285.56;;;11.86;100.00
6198;BME280;3132;42.622;23.328;2023-05-14T09:58:42;93285.00;;;11.99;100.00
6198;BME280;3132;42.622;23.328;2023-05-14T10:01:08;93277.44;;;11.93;100.00
6198;BME280;3132;42.622;23.328;2023-05-14T10:03:34;93275.84;;;11.97;100.00
6198;BME280;3132;42.622;23.328;2023-05-14T10:06:03;93274.63;;;11.84;100.00
6198;BME280;3132;42.622;23.328;2023-05-14T10:08:33;93261.56;;;11.74;100.00
6198;BME280;3132;42.622;23.328;2023-05-14T10:11:02;93246.16;;;11.68;100.00
6198;BME280;3132;42.622;23.328;2023-05-14T10:13:39;93258.50;;;11.52;100.00
6198;BME280;3132;42.622;23.328;2023-05-14T10:16:11;93257.97;;;11.55;100.00
6198;BME280;3132;42.622;23.328;2023-05-14T10:18:42;93235.78;;;11.43;100.00
6198;BME280;3132;42.622;23.328;2023-05-14T10:21:13;93237.34;;;11.49;100.00
6198;BME280;3132;42.622;23.328;2023-05-14T10:23:39;93244.94;;;11.50;100.00
6198;BME280;3132;42.622;23.328;2023-05-14T10:26:05;93243.16;;;11.25;100.00
6198;BME280;3132;42.622;23.328;2023-05-14T10:28:32;93248.34;;;11.41;100.00
6198;BME280;3132;42.622;23.328;2023-05-14T10:30:58;93261.44;;;11.35;100.00
6198;BME280;3132;42.622;23.328;2023-05-14T10:33:25;93252.88;;;11.20;100.00
6198;BME280;3132;42.622;23.328;2023-05-14T10:38:35;93263.72;;;11.52;100.00
6198;BME280;3132;42.622;23.328;2023-05-14T10:41:05;93247.28;;;11.52;100.00
6198;BME280;3132;42.622;23.328;2023-05-14T10:43:35;93257.16;;;11.60;100.00
6198;BME280;3132;42.622;23.328;2023-05-14T10:46:01;93241.25;;;11.51;100.00
6198;BME280;3132;42.622;23.328;2023-05-14T10:48:27;93255.88;;;11.67;100.00
6198;BME280;3132;42.622;23.328;2023-05-14T10:50:54;93244.06;;;11.70;100.00
6198;BME280;3132;42.622;23.328;2023-05-14T10:53:29;93237.75;;;11.76;100.00
6198;BME280;3132;42.622;23.328;2023-05-14T10:55:55;93244.13;;;12.03;100.00
6198;BME280;3132;42.622;23.328;2023-05-14T10:58:21;93245.88;;;12.18;100.00
6198;BME280;3132;42.622;23.328;2023-05-14T11:00:46;93234.13;;;12.15;100.00
6198;BME280;3132;42.622;23.328;2023-05-14T11:03:12;93233.50;;;12.28;100.00
6198;BME280;3132;42.622;23.328;2023-05-14T11:05:39;93227.66;;;12.03;100.00
6198;BME280;3132;42.622;23.328;2023-05-14T11:08:07;93231.66;;;11.95;100.00
6198;BME280;3132;42.622;23.328;2023-05-14T11:10:32;93231.25;;;11.73;100.00
6198;BME280;3132;42.622;23.328;2023-05-14T11:12:59;93238.78;;;11.11;100.00
6198;BME280;3132;42.622;23.328;2023-05-14T11:15:25;93243.47;;;11.14;100.00
6198;BME280;3132;42.622;23.328;2023-05-14T11:17:52;93251.13;;;11.69;100.00
6198;BME280;3132;42.622;23.328;2023-05-14T11:20:19;93248.44;;;11.84;100.00
6198;BME280;3132;42.622;23.328;2023-05-14T11:22:45;93254.19;;;11.86;100.00
6198;BME280;3132;42.622;23.328;2023-05-14T11:25:12;93255.81;;;12.16;100.00
6198;BME280;3132;42.622;23.328;2023-05-14T11:27:39;93251.34;;;12.21;100.00
6198;BME280;3132;42.622;23.328;2023-05-14T11:30:12;93239.25;;;11.23;100.00
6198;BME280;3132;42.622;23.328;2023-05-14T11:32:38;93227.22;;;11.27;100.00
6198;BME280;3132;42.622;23.328;2023-05-14T11:35:05;93247.56;;;11.99;100.00
6198;BME280;3132;42.622;23.328;2023-05-14T11:37:30;93248.50;;;12.18;100.00
6198;BME280;3132;42.622;23.328;2023-05-14T11:39:59;93257.84;;;12.29;100.00
6198;BME280;3132;42.622;23.328;2023-05-14T11:42:24;93256.28;;;12.28;100.00
6198;BME280;3132;42.622;23.328;2023-05-14T11:44:50;93239.19;;;12.40;100.00
6198;BME280;3132;42.622;23.328;2023-05-14T11:47:18;93243.16;;;12.66;100.00
6198;BME280;3132;42.622;23.328;2023-05-14T11:49:44;93238.22;;;12.60;100.00
6198;BME280;3132;42.622;23.328;2023-05-14T11:52:10;93234.75;;;12.36;100.00
6198;BME280;3132;42.622;23.328;2023-05-14T11:54:38;93240.63;;;12.85;100.00
6198;BME280;3132;42.622;23.328;2023-05-14T11:57:09;93237.00;;;13.10;100.00
6198;BME280;3132;42.622;23.328;2023-05-14T11:59:36;93224.97;;;13.09;100.00
6198;BME280;3132;42.622;23.328;2023-05-14T12:02:02;93227.31;;;13.10;100.00
6198;BME280;3132;42.622;23.328;2023-05-14T12:04:29;93226.84;;;13.03;100.00
6198;BME280;3132;42.622;23.328;2023-05-14T12:06:57;93227.31;;;13.10;100.00
6198;BME280;3132;42.622;23.328;2023-05-14T12:09:23;93235.13;;;13.15;100.00
6198;BME280;3132;42.622;23.328;2023-05-14T12:11:49;93240.38;;;13.15;98.68
6198;BME280;3132;42.622;23.328;2023-05-14T12:14:19;93231.88;;;13.23;100.00
6198;BME280;3132;42.622;23.328;2023-05-14T12:16:46;93213.34;;;13.38;99.14
6198;BME280;3132;42.622;23.328;2023-05-14T12:19:16;93191.03;;;13.17;99.64
6198;BME280;3132;42.622;23.328;2023-05-14T12:21:44;93203.66;;;13.15;100.00
6198;BME280;3132;42.622;23.328;2023-05-14T12:24:12;93194.25;;;13.33;100.00
6198;BME280;3132;42.622;23.328;2023-05-14T12:26:37;93187.53;;;13.03;100.00
6198;BME280;3132;42.622;23.328;2023-05-14T12:29:03;93187.53;;;12.98;100.00
6198;BME280;3132;42.622;23.328;2023-05-14T12:31:34;93183.22;;;12.88;100.00
6198;BME280;3132;42.622;23.328;2023-05-14T12:34:01;93175.34;;;12.60;100.00
6198;BME280;3132;42.622;23.328;2023-05-14T12:36:27;93166.88;;;12.73;100.00
6198;BME280;3132;42.622;23.328;2023-05-14T12:39:00;93171.31;;;13.01;100.00
6198;BME280;3132;42.622;23.328;2023-05-14T12:41:26;93167.91;;;12.72;100.00
6198;BME280;3132;42.622;23.328;2023-05-14T12:43:52;93161.50;;;12.83;100.00
6198;BME280;3132;42.622;23.328;2023-05-14T12:46:18;93171.31;;;13.01;100.00
6198;BME280;3132;42.622;23.328;2023-05-14T12:48:43;93165.16;;;13.11;100.00
6198;BME280;3132;42.622;23.328;2023-05-14T12:51:09;93138.19;;;13.10;100.00
6198;BME280;3132;42.622;23.328;2023-05-14T12:53:34;93145.06;;;13.25;100.00
6198;BME280;3132;42.622;23.328;2023-05-14T12:56:00;93147.28;;;13.36;100.00
6198;BME280;3132;42.622;23.328;2023-05-14T12:58:25;93156.94;;;13.41;99.90
6198;BME280;3132;42.622;23.328;2023-05-14T13:00:51;93159.53;;;13.22;98.76
6198;BME280;3132;42.622;23.328;2023-05-14T13:03:16;93163.31;;;13.35;100.00
6198;BME280;3132;42.622;23.328;2023-05-14T13:05:41;93158.53;;;13.18;100.00
6198;BME280;3132;42.622;23.328;2023-05-14T13:08:08;93155.34;;;12.69;100.00
6198;BME280;3132;42.622;23.328;2023-05-14T13:10:34;93166.66;;;12.36;100.00
6198;BME280;3132;42.622;23.328;2023-05-14T13:12:59;93146.72;;;12.11;100.00